sensor_id;sensor_type;location;lat;lon;timestamp;pressure;altitude;pressure_sealevel;temperature;humidity
55538;BME280;41383;51.418;7.286;2022-07-21T00:00:14;100123.47;;;21.46;82.71
55538;BME280;41383;51.418;7.286;2022-07-21T00:02:40;100129.50;;;21.48;82.45
55538;BME280;41383;51.418;7.286;2022-07-21T00:05:05;100124.78;;;21.49;81.11
55538;BME280;41383;51.418;7.286;2022-07-21T00:07:31;100113.03;;;21.52;81.99
55538;BME280;41383;51.418;7.286;2022-07-21T00:09:56;100117.56;;;21.56;80.79
55538;BME280;41383;51.418;7.286;2022-07-21T00:12:21;100117.28;;;21.49;81.10
55538;BME280;41383;51.418;7.286;2022-07-21T00:14:47;100120.53;;;21.51;81.15
55538;BME280;41383;51.418;7.286;2022-07-21T00:17:12;100114.50;;;21.49;81.01
55538;BME280;41383;51.418;7.286;2022-07-21T00:19:37;100106.81;;;21.46;80.91
55538;BME280;41383;51.418;7.286;2022-07-21T00:22:03;100101.94;;;21.52;80.84
55538;BME280;41383;51.418;7.286;2022-07-21T00:24:28;100102.78;;;21.34;81.16
55538;BME280;41383;51.418;7.286;2022-07-21T00:26:53;100089.41;;;21.45;80.56
55538;BME280;41383;51.418;7.286;2022-07-21T00:29:19;100084.13;;;21.53;80.27
55538;BME280;41383;51.418;7.286;2022-07-21T00:31:44;100072.13;;;21.40;80.54
55538;BME280;41383;51.418;7.286;2022-07-21T00:34:09;100070.34;;;21.26;81.41
55538;BME280;41383;51.418;7.286;2022-07-21T00:36:34;100065.63;;;21.27;81.35
55538;BME280;41383;51.418;7.286;2022-07-21T00:39:00;100066.47;;;21.27;81.85
55538;BME280;41383;51.418;7.286;2022-07-21T00:41:25;100073.44;;;21.33;81.42
55538;BME280;41383;51.418;7.286;2022-07-21T00:43:50;100070.50;;;21.30;81.43
55538;BME280;41383;51.418;7.286;2022-07-21T00:46:19;100078.50;;;21.31;81.42
55538;BME280;41383;51.418;7.286;2022-07-21T00:48:45;100084.88;;;21.23;81.54
55538;BME280;41383;51.418;7.286;2022-07-21T00:51:10;100087.66;;;21.23;81.33
55538;BME280;41383;51.418;7.286;2022-07-21T00:53:35;100088.97;;;21.17;81.01
55538;BME280;41383;51.418;7.286;2022-07-21T00:56:01;100097.09;;;21.22;81.61
55538;BME280;41383;51.418;7.286;2022-07-21T00:58:26;100087.53;;;21.10;81.31
55538;BME280;41383;51.418;7.286;2022-07-21T01:00:52;100105.94;;;21.06;81.77
55538;BME280;41383;51.418;7.286;2022-07-21T01:03:17;100103.81;;;21.03;82.38
55538;BME280;41383;51.418;7.286;2022-07-21T01:05:43;100105.16;;;20.97;81.42
55538;BME280;41383;51.418;7.286;2022-07-21T01:08:08;100111.34;;;21.03;81.63
55538;BME280;41383;51.418;7.286;2022-07-21T01:10:33;100110.47;;;20.93;82.62
55538;BME280;41383;51.418;7.286;2022-07-21T01:12:59;100103.00;;;20.76;82.19
55538;BME280;41383;51.418;7.286;2022-07-21T01:15:25;100098.59;;;20.84;82.02
55538;BME280;41383;51.418;7.286;2022-07-21T01:17:51;100107.25;;;20.82;81.48
55538;BME280;41383;51.418;7.286;2022-07-21T01:20:20;100111.13;;;20.81;81.48
55538;BME280;41383;51.418;7.286;2022-07-21T01:22:49;100105.94;;;20.88;81.22
55538;BME280;41383;51.418;7.286;2022-07-21T01:25:15;100107.72;;;20.75;81.70
55538;BME280;41383;51.418;7.286;2022-07-21T01:27:41;100093.22;;;20.87;80.58
55538;BME280;41383;51.418;7.286;2022-07-21T01:30:07;100102.03;;;20.72;81.83
55538;BME280;41383;51.418;7.286;2022-07-21T01:32:35;100119.94;;;20.65;82.43
55538;BME280;41383;51.418;7.286;2022-07-21T01:35:01;100118.66;;;20.72;82.81
55538;BME280;41383;51.418;7.286;2022-07-21T01:37:28;100122.25;;;20.72;82.62
55538;BME280;41383;51.418;7.286;2022-07-21T01:39:54;100126.63;;;20.73;82.58
55538;BME280;41383;51.418;7.286;2022-07-21T01:42:38;100126.16;;;20.62;81.96
55538;BME280;41383;51.418;7.286;2022-07-21T01:45:04;100128.44;;;20.60;82.45
55538;BME280;41383;51.418;7.286;2022-07-21T01:47:30;100128.44;;;20.60;81.89
55538;BME280;41383;51.418;7.286;2022-07-21T01:49:56;100122.22;;;20.63;81.86
55538;BME280;41383;51.418;7.286;2022-07-21T01:52:21;100133.47;;;20.58;82.33
55538;BME280;41383;51.418;7.286;2022-07-21T01:54:46;100124.50;;;20.44;81.63
55538;BME280;41383;51.418;7.286;2022-07-21T01:57:12;100122.84;;;20.42;82.29
55538;BME280;41383;51.418;7.286;2022-07-21T01:59:37;100120.25;;;20.37;82.50
55538;BME280;41383;51.418;7.286;2022-07-21T02:02:03;100118.94;;;20.44;81.44
55538;BME280;41383;51.418;7.286;2022-07-21T02:04:28;100113.56;;;20.38;81.67
55538;BME280;41383;51.418;7.286;2022-07-21T02:06:54;100111.59;;;20.30;81.77
55538;BME280;41383;51.418;7.286;2022-07-21T02:09:19;100112.56;;;20.25;82.03
55538;BME280;41383;51.418;7.286;2022-07-21T02:11:44;100106.50;;;20.14;82.23
55538;BME280;41383;51.418;7.286;2022-07-21T02:14:10;100116.94;;;20.17;81.78
55538;BME280;41383;51.418;7.286;2022-07-21T02:16:35;100129.63;;;20.18;80.77
55538;BME280;41383;51.418;7.286;2022-07-21T02:19:00;100123.13;;;20.14;81.75
55538;BME280;41383;51.418;7.286;2022-07-21T02:21:26;100136.00;;;20.19;81.49
55538;BME280;41383;51.418;7.286;2022-07-21T02:23:51;100133.19;;;20.10;81.71
55538;BME280;41383;51.418;7.286;2022-07-21T02:26:17;100127.28;;;20.03;82.58
55538;BME280;41383;51.418;7.286;2022-07-21T02:28:42;100133.00;;;20.06;82.91
55538;BME280;41383;51.418;7.286;2022-07-21T02:31:07;100116.09;;;20.08;81.91
55538;BME280;41383;51.418;7.286;2022-07-21T02:33:33;100118.72;;;20.13;81.86
55538;BME280;41383;51.418;7.286;2022-07-21T02:35:58;100118.66;;;20.04;82.06
55538;BME280;41383;51.418;7.286;2022-07-21T02:38:24;100118.66;;;20.04;82.16
55538;BME280;41383;51.418;7.286;2022-07-21T02:40:49;100125.88;;;20.14;82.32
55538;BME280;41383;51.418;7.286;2022-07-21T02:43:14;100124.41;;;20.08;82.29
55538;BME280;41383;51.418;7.286;2022-07-21T02:45:39;100127.47;;;20.06;81.52
55538;BME280;41383;51.418;7.286;2022-07-21T02:48:09;100125.34;;;20.03;81.83
55538;BME280;41383;51.418;7.286;2022-07-21T02:50:37;100125.47;;;19.98;82.33
55538;BME280;41383;51.418;7.286;2022-07-21T02:53:04;100122.66;;;19.89;82.59
55538;BME280;41383;51.418;7.286;2022-07-21T02:55:30;100120.91;;;19.93;82.68
55538;BME280;41383;51.418;7.286;2022-07-21T02:58:16;100116.50;;;19.92;82.87
55538;BME280;41383;51.418;7.286;2022-07-21T03:00:49;100114.41;;;19.98;82.04
55538;BME280;41383;51.418;7.286;2022-07-21T03:03:15;100106.25;;;19.93;82.42
55538;BME280;41383;51.418;7.286;2022-07-21T03:05:40;100110.97;;;19.92;82.11
55538;BME280;41383;51.418;7.286;2022-07-21T03:08:07;100103.81;;;19.91;81.65
55538;BME280;41383;51.418;7.286;2022-07-21T03:10:33;100096.44;;;19.78;82.61
55538;BME280;41383;51.418;7.286;2022-07-21T03:12:58;100111.25;;;19.82;82.01
55538;BME280;41383;51.418;7.286;2022-07-21T03:15:24;100104.56;;;19.74;82.79
55538;BME280;41383;51.418;7.286;2022-07-21T03:17:50;100098.84;;;19.70;83.34
55538;BME280;41383;51.418;7.286;2022-07-21T03:20:16;100096.88;;;19.62;83.28
55538;BME280;41383;51.418;7.286;2022-07-21T03:22:41;100092.16;;;19.63;82.90
55538;BME280;41383;51.418;7.286;2022-07-21T03:25:07;100104.50;;;19.56;83.05
55538;BME280;41383;51.418;7.286;2022-07-21T03:27:33;100092.63;;;19.56;83.62
55538;BME280;41383;51.418;7.286;2022-07-21T03:30:05;100100.25;;;19.59;83.22
55538;BME280;41383;51.418;7.286;2022-07-21T03:32:32;100094.59;;;19.64;83.59
55538;BME280;41383;51.418;7.286;2022-07-21T03:34:57;100095.44;;;19.65;83.48
55538;BME280;41383;51.418;7.286;2022-07-21T03:37:22;100092.34;;;19.66;83.22
55538;BME280;41383;51.418;7.286;2022-07-21T03:39:47;100079.63;;;19.65;83.72
55538;BME280;41383;51.418;7.286;2022-07-21T03:42:13;100072.47;;;19.64;83.97
55538;BME280;41383;51.418;7.286;2022-07-21T03:44:38;100069.56;;;19.69;83.12
55538;BME280;41383;51.418;7.286;2022-07-21T03:47:03;100060.59;;;19.64;83.77
55538;BME280;41383;51.418;7.286;2022-07-21T03:49:29;100062.53;;;19.54;83.91
55538;BME280;41383;51.418;7.286;2022-07-21T03:51:54;100061.06;;;19.57;83.63
55538;BME280;41383;51.418;7.286;2022-07-21T03:54:19;100056.63;;;19.47;84.24
55538;BME280;41383;51.418;7.286;2022-07-21T03:56:44;100053.41;;;19.54;83.46
55538;BME280;41383;51.418;7.286;2022-07-21T03:59:10;100054.91;;;19.60;83.51
55538;BME280;41383;51.418;7.286;2022-07-21T04:01:35;100048.03;;;19.57;83.71
55538;BME280;41383;51.418;7.286;2022-07-21T04:04:00;100044.53;;;19.75;82.57
55538;BME280;41383;51.418;7.286;2022-07-21T04:06:25;100030.84;;;19.69;83.00
55538;BME280;41383;51.418;7.286;2022-07-21T04:08:51;100016.53;;;19.67;83.14
55538;BME280;41383;51.418;7.286;2022-07-21T04:11:16;100021.75;;;19.78;83.13
55538;BME280;41383;51.418;7.286;2022-07-21T04:13:41;100024.16;;;19.62;83.20
55538;BME280;41383;51.418;7.286;2022-07-21T04:16:07;100033.06;;;19.50;84.43
55538;BME280;41383;51.418;7.286;2022-07-21T04:18:32;100040.91;;;19.65;83.63
55538;BME280;41383;51.418;7.286;2022-07-21T04:20:57;100041.41;;;19.67;83.53
55538;BME280;41383;51.418;7.286;2022-07-21T04:23:23;100046.16;;;19.67;83.98
55538;BME280;41383;51.418;7.286;2022-07-21T04:25:48;100043.56;;;19.70;83.42
55538;BME280;41383;51.418;7.286;2022-07-21T04:28:13;100035.56;;;19.69;83.49
55538;BME280;41383;51.418;7.286;2022-07-21T04:30:39;100025.69;;;19.77;83.49
55538;BME280;41383;51.418;7.286;2022-07-21T04:33:04;100040.50;;;19.81;82.85
55538;BME280;41383;51.418;7.286;2022-07-21T04:35:31;100037.41;;;19.82;82.96
55538;BME280;41383;51.418;7.286;2022-07-21T04:37:57;100048.31;;;19.88;82.80
55538;BME280;41383;51.418;7.286;2022-07-21T04:40:22;100038.22;;;19.83;82.88
55538;BME280;41383;51.418;7.286;2022-07-21T04:42:47;100038.22;;;19.92;82.99
55538;BME280;41383;51.418;7.286;2022-07-21T04:45:14;100042.31;;;19.94;83.37
55538;BME280;41383;51.418;7.286;2022-07-21T04:47:50;100037.41;;;19.91;83.66
55538;BME280;41383;51.418;7.286;2022-07-21T04:50:17;100041.78;;;19.83;84.10
55538;BME280;41383;51.418;7.286;2022-07-21T04:52:43;100040.81;;;19.88;83.61
55538;BME280;41383;51.418;7.286;2022-07-21T04:55:09;100050.63;;;19.94;83.32
55538;BME280;41383;51.418;7.286;2022-07-21T04:57:40;100055.00;;;19.95;83.32
55538;BME280;41383;51.418;7.286;2022-07-21T05:00:07;100054.69;;;20.06;82.78
55538;BME280;41383;51.418;7.286;2022-07-21T05:02:33;100060.91;;;20.12;82.49
55538;BME280;41383;51.418;7.286;2022-07-21T05:04:58;100055.56;;;20.15;82.58
55538;BME280;41383;51.418;7.286;2022-07-21T05:07:23;100057.69;;;20.18;82.47
55538;BME280;41383;51.418;7.286;2022-07-21T05:09:48;100058.13;;;20.03;82.57
55538;BME280;41383;51.418;7.286;2022-07-21T05:12:14;100064.56;;;19.89;83.34
55538;BME280;41383;51.418;7.286;2022-07-21T05:14:39;100061.19;;;19.92;83.40
55538;BME280;41383;51.418;7.286;2022-07-21T05:17:04;100067.22;;;19.94;83.23
55538;BME280;41383;51.418;7.286;2022-07-21T05:19:30;100059.44;;;20.05;82.92
55538;BME280;41383;51.418;7.286;2022-07-21T05:21:55;100066.31;;;20.17;82.01
55538;BME280;41383;51.418;7.286;2022-07-21T05:24:20;100063.53;;;20.08;82.39
55538;BME280;41383;51.418;7.286;2022-07-21T05:26:45;100064.34;;;20.09;82.14
55538;BME280;41383;51.418;7.286;2022-07-21T05:29:11;100053.41;;;20.03;82.41
55538;BME280;41383;51.418;7.286;2022-07-21T05:31:36;100065.66;;;20.11;82.82
55538;BME280;41383;51.418;7.286;2022-07-21T05:34:01;100065.16;;;20.09;82.25
55538;BME280;41383;51.418;7.286;2022-07-21T05:36:26;100068.25;;;20.16;82.58
55538;BME280;41383;51.418;7.286;2022-07-21T05:38:52;100068.75;;;20.18;82.43
55538;BME280;41383;51.418;7.286;2022-07-21T05:41:17;100065.50;;;20.16;82.40
55538;BME280;41383;51.418;7.286;2022-07-21T05:43:42;100078.69;;;20.20;82.57
55538;BME280;41383;51.418;7.286;2022-07-21T05:46:08;100075.09;;;20.28;82.04
55538;BME280;41383;51.418;7.286;2022-07-21T05:48:33;100073.66;;;20.22;82.14
55538;BME280;41383;51.418;7.286;2022-07-21T05:50:58;100071.38;;;20.24;82.35
55538;BME280;41383;51.418;7.286;2022-07-21T05:53:23;100065.34;;;20.30;81.69
55538;BME280;41383;51.418;7.286;2022-07-21T05:55:49;100073.16;;;20.28;81.69
55538;BME280;41383;51.418;7.286;2022-07-21T05:58:14;100070.09;;;20.48;81.59
55538;BME280;41383;51.418;7.286;2022-07-21T06:00:40;100080.69;;;20.63;81.08
55538;BME280;41383;51.418;7.286;2022-07-21T06:03:06;100082.28;;;20.64;80.64
55538;BME280;41383;51.418;7.286;2022-07-21T06:05:31;100080.69;;;20.72;79.59
55538;BME280;41383;51.418;7.286;2022-07-21T06:07:57;100077.09;;;20.72;81.02
55538;BME280;41383;51.418;7.286;2022-07-21T06:10:22;100081.00;;;20.80;80.11
55538;BME280;41383;51.418;7.286;2022-07-21T06:12:47;100069.91;;;20.88;79.06
55538;BME280;41383;51.418;7.286;2022-07-21T06:15:13;100067.63;;;20.73;79.62
55538;BME280;41383;51.418;7.286;2022-07-21T06:17:40;100074.00;;;20.82;79.91
55538;BME280;41383;51.418;7.286;2022-07-21T06:20:07;100074.63;;;20.79;79.01
55538;BME280;41383;51.418;7.286;2022-07-21T06:22:34;100081.97;;;20.75;79.44
55538;BME280;41383;51.418;7.286;2022-07-21T06:24:59;100075.63;;;20.65;79.11
55538;BME280;41383;51.418;7.286;2022-07-21T06:27:24;100075.94;;;20.73;79.22
55538;BME280;41383;51.418;7.286;2022-07-21T06:29:49;100089.63;;;20.69;79.95
55538;BME280;41383;51.418;7.286;2022-07-21T06:32:15;100091.91;;;20.94;79.53
55538;BME280;41383;51.418;7.286;2022-07-21T06:34:40;100085.72;;;21.15;79.43
55538;BME280;41383;51.418;7.286;2022-07-21T06:37:05;100092.88;;;21.16;78.24
55538;BME280;41383;51.418;7.286;2022-07-21T06:39:31;100094.22;;;21.01;78.23
55538;BME280;41383;51.418;7.286;2022-07-21T06:41:56;100095.50;;;21.03;78.00
55538;BME280;41383;51.418;7.286;2022-07-21T06:44:22;100098.44;;;20.98;78.66
55538;BME280;41383;51.418;7.286;2022-07-21T06:46:50;100092.41;;;20.78;79.14
55538;BME280;41383;51.418;7.286;2022-07-21T06:49:15;100097.63;;;20.88;78.83
55538;BME280;41383;51.418;7.286;2022-07-21T06:51:40;100098.13;;;20.91;78.37
55538;BME280;41383;51.418;7.286;2022-07-21T06:54:05;100098.44;;;20.98;78.38
55538;BME280;41383;51.418;7.286;2022-07-21T06:56:31;100105.78;;;21.03;77.72
55538;BME280;41383;51.418;7.286;2022-07-21T06:58:56;100104.16;;;21.10;78.19
55538;BME280;41383;51.418;7.286;2022-07-21T07:01:21;100091.78;;;20.99;78.99
55538;BME280;41383;51.418;7.286;2022-07-21T07:03:47;100103.81;;;21.03;78.77
55538;BME280;41383;51.418;7.286;2022-07-21T07:06:12;100111.63;;;21.10;77.64
55538;BME280;41383;51.418;7.286;2022-07-21T07:08:37;100104.78;;;21.07;77.55
55538;BME280;41383;51.418;7.286;2022-07-21T07:11:04;100097.25;;;21.26;77.83
55538;BME280;41383;51.418;7.286;2022-07-21T07:13:30;100092.72;;;21.21;77.01
55538;BME280;41383;51.418;7.286;2022-07-21T07:15:56;100089.91;;;21.30;76.34
55538;BME280;41383;51.418;7.286;2022-07-21T07:18:21;100085.88;;;21.09;76.40
55538;BME280;41383;51.418;7.286;2022-07-21T07:20:49;100082.13;;;21.14;77.34
55538;BME280;41383;51.418;7.286;2022-07-21T07:23:15;100086.53;;;21.15;76.77
55538;BME280;41383;51.418;7.286;2022-07-21T07:25:40;100077.06;;;21.25;76.58
55538;BME280;41383;51.418;7.286;2022-07-21T07:28:06;100090.59;;;21.27;76.97
55538;BME280;41383;51.418;7.286;2022-07-21T07:30:34;100083.88;;;21.28;77.00
55538;BME280;41383;51.418;7.286;2022-07-21T07:32:59;100094.63;;;21.38;76.11
55538;BME280;41383;51.418;7.286;2022-07-21T07:35:25;100095.63;;;21.33;76.61
55538;BME280;41383;51.418;7.286;2022-07-21T07:37:50;100106.72;;;21.25;77.72
55538;BME280;41383;51.418;7.286;2022-07-21T07:40:18;100099.53;;;21.32;76.69
55538;BME280;41383;51.418;7.286;2022-07-21T07:42:44;100100.16;;;21.38;76.98
55538;BME280;41383;51.418;7.286;2022-07-21T07:45:10;100101.28;;;21.46;76.85
55538;BME280;41383;51.418;7.286;2022-07-21T07:47:36;100107.28;;;21.57;76.04
55538;BME280;41383;51.418;7.286;2022-07-21T07:50:03;100094.72;;;21.60;75.81
55538;BME280;41383;51.418;7.286;2022-07-21T07:52:28;100100.91;;;21.56;75.68
55538;BME280;41383;51.418;7.286;2022-07-21T07:54:54;100097.09;;;21.40;74.58
55538;BME280;41383;51.418;7.286;2022-07-21T07:57:19;100094.75;;;21.42;73.84
55538;BME280;41383;51.418;7.286;2022-07-21T07:59:44;100089.41;;;21.45;73.10
55538;BME280;41383;51.418;7.286;2022-07-21T08:02:10;100091.09;;;21.68;73.07
55538;BME280;41383;51.418;7.286;2022-07-21T08:04:35;100092.06;;;21.72;71.91
55538;BME280;41383;51.418;7.286;2022-07-21T08:07:02;100090.06;;;21.81;72.21
55538;BME280;41383;51.418;7.286;2022-07-21T08:09:27;100092.44;;;22.01;71.97
55538;BME280;41383;51.418;7.286;2022-07-21T08:11:53;100091.25;;;22.11;71.50
55538;BME280;41383;51.418;7.286;2022-07-21T08:14:18;100093.81;;;22.16;71.05
55538;BME280;41383;51.418;7.286;2022-07-21T08:16:43;100096.84;;;22.54;71.20
55538;BME280;41383;51.418;7.286;2022-07-21T08:19:10;100097.25;;;22.65;69.91
55538;BME280;41383;51.418;7.286;2022-07-21T08:21:35;100104.59;;;22.69;67.29
55538;BME280;41383;51.418;7.286;2022-07-21T08:24:01;100106.31;;;22.31;67.96
55538;BME280;41383;51.418;7.286;2022-07-21T08:26:27;100101.94;;;22.51;68.14
55538;BME280;41383;51.418;7.286;2022-07-21T08:28:53;100098.59;;;23.01;67.27
55538;BME280;41383;51.418;7.286;2022-07-21T08:31:19;100095.69;;;22.97;66.58
55538;BME280;41383;51.418;7.286;2022-07-21T08:33:44;100104.03;;;22.97;65.36
55538;BME280;41383;51.418;7.286;2022-07-21T08:36:10;100106.03;;;23.09;64.82
55538;BME280;41383;51.418;7.286;2022-07-21T08:38:35;100098.97;;;23.12;65.17
55538;BME280;41383;51.418;7.286;2022-07-21T08:41:01;100094.03;;;22.96;65.41
55538;BME280;41383;51.418;7.286;2022-07-21T08:43:26;100089.94;;;23.15;64.39
55538;BME280;41383;51.418;7.286;2022-07-21T08:45:53;100093.34;;;23.33;64.53
55538;BME280;41383;51.418;7.286;2022-07-21T08:48:24;100099.72;;;23.34;64.29
55538;BME280;41383;51.418;7.286;2022-07-21T08:50:50;100095.69;;;23.44;64.10
55538;BME280;41383;51.418;7.286;2022-07-21T08:53:16;100098.47;;;23.44;63.24
55538;BME280;41383;51.418;7.286;2022-07-21T08:55:42;100100.94;;;23.46;63.38
55538;BME280;41383;51.418;7.286;2022-07-21T08:58:09;100099.44;;;23.48;63.36
55538;BME280;41383;51.418;7.286;2022-07-21T09:00:36;100105.06;;;23.39;63.77
55538;BME280;41383;51.418;7.286;2022-07-21T09:03:20;100105.50;;;22.95;63.58
55538;BME280;41383;51.418;7.286;2022-07-21T09:06:12;100094.25;;;22.91;64.44
55538;BME280;41383;51.418;7.286;2022-07-21T09:08:50;100103.66;;;22.65;64.63
55538;BME280;41383;51.418;7.286;2022-07-21T09:11:20;100098.47;;;22.55;65.07
55538;BME280;41383;51.418;7.286;2022-07-21T09:13:48;100096.28;;;22.60;66.11
55538;BME280;41383;51.418;7.286;2022-07-21T09:16:35;100099.03;;;22.69;66.34
55538;BME280;41383;51.418;7.286;2022-07-21T09:19:01;100097.50;;;22.93;65.59
55538;BME280;41383;51.418;7.286;2022-07-21T09:21:27;100097.25;;;22.86;65.46
55538;BME280;41383;51.418;7.286;2022-07-21T09:24:13;100096.03;;;22.96;65.16
55538;BME280;41383;51.418;7.286;2022-07-21T09:27:17;100090.53;;;23.21;64.44
55538;BME280;41383;51.418;7.286;2022-07-21T09:29:45;100102.50;;;23.34;63.85
55538;BME280;41383;51.418;7.286;2022-07-21T09:32:13;100098.63;;;23.48;63.14
55538;BME280;41383;51.418;7.286;2022-07-21T09:34:38;100092.19;;;23.35;62.84
55538;BME280;41383;51.418;7.286;2022-07-21T09:37:05;100089.41;;;23.35;62.75
55538;BME280;41383;51.418;7.286;2022-07-21T09:39:46;100086.75;;;23.38;62.40
55538;BME280;41383;51.418;7.286;2022-07-21T09:42:17;100095.38;;;23.46;63.02
55538;BME280;41383;51.418;7.286;2022-07-21T09:44:47;100090.53;;;23.67;62.28
55538;BME280;41383;51.418;7.286;2022-07-21T09:47:14;100097.97;;;23.63;62.94
55538;BME280;41383;51.418;7.286;2022-07-21T09:49:40;100098.72;;;23.51;63.41
55538;BME280;41383;51.418;7.286;2022-07-21T09:52:29;100102.03;;;23.32;63.48
55538;BME280;41383;51.418;7.286;2022-07-21T09:55:00;100099.03;;;23.37;64.31
55538;BME280;41383;51.418;7.286;2022-07-21T09:57:26;100089.41;;;23.35;63.19
55538;BME280;41383;51.418;7.286;2022-07-21T09:59:52;100097.94;;;23.51;63.90
55538;BME280;41383;51.418;7.286;2022-07-21T10:02:21;100100.13;;;23.58;62.96
55538;BME280;41383;51.418;7.286;2022-07-21T10:04:55;100107.53;;;23.53;62.87
55538;BME280;41383;51.418;7.286;2022-07-21T10:07:21;100099.78;;;23.47;62.19
55538;BME280;41383;51.418;7.286;2022-07-21T10:09:47;100099.56;;;23.52;62.50
55538;BME280;41383;51.418;7.286;2022-07-21T10:12:15;100104.00;;;23.65;61.54
55538;BME280;41383;51.418;7.286;2022-07-21T10:14:41;100102.69;;;23.50;61.70
55538;BME280;41383;51.418;7.286;2022-07-21T10:17:07;100101.41;;;23.60;61.68
55538;BME280;41383;51.418;7.286;2022-07-21T10:19:40;100106.06;;;23.56;60.44
55538;BME280;41383;51.418;7.286;2022-07-21T10:22:22;100103.31;;;23.35;60.65
55538;BME280;41383;51.418;7.286;2022-07-21T10:24:49;100114.75;;;23.54;60.53
55538;BME280;41383;51.418;7.286;2022-07-21T10:27:14;100108.03;;;23.68;60.10
55538;BME280;41383;51.418;7.286;2022-07-21T10:30:00;100104.00;;;23.65;60.37
55538;BME280;41383;51.418;7.286;2022-07-21T10:34:54;100099.00;;;23.59;59.50
55538;BME280;41383;51.418;7.286;2022-07-21T10:42:45;100091.44;;;23.72;58.51
55538;BME280;41383;51.418;7.286;2022-07-21T10:47:59;100113.25;;;23.57;58.42
55538;BME280;41383;51.418;7.286;2022-07-21T10:50:31;100122.22;;;23.41;58.77
55538;BME280;41383;51.418;7.286;2022-07-21T10:52:59;100114.50;;;23.13;59.40
55538;BME280;41383;51.418;7.286;2022-07-21T10:55:26;100113.88;;;23.29;59.05
55538;BME280;41383;51.418;7.286;2022-07-21T11:00:38;100115.88;;;23.53;58.39
55538;BME280;41383;51.418;7.286;2022-07-21T11:03:23;100120.47;;;23.37;59.77
55538;BME280;41383;51.418;7.286;2022-07-21T11:22:19;100128.19;;;22.54;63.74
55538;BME280;41383;51.418;7.286;2022-07-21T11:24:50;100129.72;;;22.51;65.07
55538;BME280;41383;51.418;7.286;2022-07-21T11:27:20;100129.41;;;22.44;64.70
55538;BME280;41383;51.418;7.286;2022-07-21T11:29:48;100135.84;;;22.36;65.33
55538;BME280;41383;51.418;7.286;2022-07-21T11:32:15;100134.16;;;22.13;66.64
55538;BME280;41383;51.418;7.286;2022-07-21T11:34:47;100140.53;;;22.14;66.49
55538;BME280;41383;51.418;7.286;2022-07-21T11:37:18;100132.72;;;22.07;67.87
55538;BME280;41383;51.418;7.286;2022-07-21T11:39:44;100131.72;;;22.12;67.53
55538;BME280;41383;51.418;7.286;2022-07-21T11:42:14;100137.16;;;22.08;67.89
55538;BME280;41383;51.418;7.286;2022-07-21T11:44:41;100138.22;;;21.77;68.85
55538;BME280;41383;51.418;7.286;2022-07-21T11:47:14;100141.97;;;21.90;68.39
55538;BME280;41383;51.418;7.286;2022-07-21T11:49:41;100139.00;;;21.95;69.39
55538;BME280;41383;51.418;7.286;2022-07-21T11:52:10;100138.44;;;22.11;69.36
55538;BME280;41383;51.418;7.286;2022-07-21T11:54:44;100137.06;;;22.17;69.58
55538;BME280;41383;51.418;7.286;2022-07-21T11:57:10;100126.75;;;22.26;69.44
55538;BME280;41383;51.418;7.286;2022-07-21T11:59:37;100134.03;;;22.10;70.24
55538;BME280;41383;51.418;7.286;2022-07-21T12:07:06;100137.38;;;21.94;72.88
55538;BME280;41383;51.418;7.286;2022-07-21T12:09:32;100128.44;;;21.88;74.08
55538;BME280;41383;51.418;7.286;2022-07-21T12:11:58;100128.25;;;21.85;73.11
55538;BME280;41383;51.418;7.286;2022-07-21T12:14:44;100126.66;;;21.84;73.66
55538;BME280;41383;51.418;7.286;2022-07-21T12:17:10;100132.09;;;22.01;74.04
55538;BME280;41383;51.418;7.286;2022-07-21T12:19:36;100132.31;;;21.78;74.49
55538;BME280;41383;51.418;7.286;2022-07-21T12:22:02;100139.72;;;21.74;75.35
55538;BME280;41383;51.418;7.286;2022-07-21T12:24:47;100138.75;;;21.70;75.96
55538;BME280;41383;51.418;7.286;2022-07-21T12:27:12;100143.69;;;21.55;75.96
55538;BME280;41383;51.418;7.286;2022-07-21T12:29:38;100142.72;;;21.51;76.38
55538;BME280;41383;51.418;7.286;2022-07-21T12:32:04;100143.69;;;21.55;76.97
55538;BME280;41383;51.418;7.286;2022-07-21T12:34:29;100142.38;;;21.62;76.58
55538;BME280;41383;51.418;7.286;2022-07-21T12:36:55;100145.91;;;21.80;76.04
55538;BME280;41383;51.418;7.286;2022-07-21T12:39:25;100147.50;;;21.90;75.78
55538;BME280;41383;51.418;7.286;2022-07-21T12:42:30;100136.56;;;21.93;75.88
55538;BME280;41383;51.418;7.286;2022-07-21T12:44:57;100145.88;;;21.89;75.47
55538;BME280;41383;51.418;7.286;2022-07-21T12:47:22;100143.63;;;21.73;77.35
55538;BME280;41383;51.418;7.286;2022-07-21T12:50:03;100129.94;;;21.68;77.22
55538;BME280;41383;51.418;7.286;2022-07-21T12:52:29;100143.97;;;21.63;77.32
55538;BME280;41383;51.418;7.286;2022-07-21T12:54:57;100125.88;;;21.65;77.07
55538;BME280;41383;51.418;7.286;2022-07-21T12:57:26;100136.47;;;21.72;77.40
55538;BME280;41383;51.418;7.286;2022-07-21T12:59:52;100140.31;;;21.89;77.12
55538;BME280;41383;51.418;7.286;2022-07-21T13:02:17;100119.34;;;21.70;77.42
55538;BME280;41383;51.418;7.286;2022-07-21T13:04:42;100124.34;;;21.77;77.19
55538;BME280;41383;51.418;7.286;2022-07-21T13:07:07;100128.31;;;21.67;77.92
55538;BME280;41383;51.418;7.286;2022-07-21T13:09:33;100138.69;;;21.88;78.07
55538;BME280;41383;51.418;7.286;2022-07-21T13:11:58;100136.91;;;21.92;77.47
55538;BME280;41383;51.418;7.286;2022-07-21T13:14:23;100128.91;;;21.81;76.86
55538;BME280;41383;51.418;7.286;2022-07-21T13:16:49;100130.59;;;21.65;77.83
55538;BME280;41383;51.418;7.286;2022-07-21T13:19:14;100132.88;;;21.63;78.04
55538;BME280;41383;51.418;7.286;2022-07-21T13:21:39;100134.88;;;21.53;78.63
55538;BME280;41383;51.418;7.286;2022-07-21T13:24:05;100145.16;;;21.44;79.11